Time;durP1;ratioP1;P1;durP2;ratioP2;P2;SDS_P1;SDS_P2;PMS_P1;PMS_P2;Temp;Humidity;BMP_temperature;BMP_pressure;BME280_temperature;BME280_humidity;BME280_pressure;Samples;Min_cycle;Max_cycle;Signal;HPM_P1;HPM_P2
2021/08/10 00:01:11;;;;;;;8.45;4.30;;;15.00;99.90;;;;;;4975075;28;20027;-71
2021/08/10 00:03:37;;;;;;;7.65;4.60;;;15.00;99.90;;;;;;4975201;28;20102;-70
2021/08/10 00:06:02;;;;;;;11.10;4.45;;;15.00;99.90;;;;;;4974766;28;20029;-70
2021/08/10 00:08:28;;;;;;;5.60;4.22;;;15.00;99.90;;;;;;4974877;28;20027;-70
2021/08/10 00:10:53;;;;;;;7.85;5.10;;;15.00;99.90;;;;;;4975153;28;20031;-69
2021/08/10 00:13:21;;;;;;;6.57;4.53;;;14.90;99.90;;;;;;4974327;28;20035;-69
2021/08/10 00:15:47;;;;;;;6.40;4.45;;;14.90;99.90;;;;;;4975061;28;20030;-69
2021/08/10 00:18:13;;;;;;;7.75;4.72;;;14.90;99.90;;;;;;4974358;28;20027;-69
2021/08/10 00:20:38;;;;;;;11.63;5.05;;;14.90;99.90;;;;;;4974983;28;20031;-69
2021/08/10 00:23:04;;;;;;;10.60;5.07;;;15.00;99.90;;;;;;4975132;28;20022;-73
2021/08/10 00:25:30;;;;;;;8.02;4.50;;;14.90;99.90;;;;;;4956939;28;20642;-71
2021/08/10 00:27:56;;;;;;;7.40;4.43;;;14.90;99.90;;;;;;4975005;28;20031;-69
2021/08/10 00:30:22;;;;;;;9.75;4.15;;;14.90;99.90;;;;;;4974448;28;20098;-73
2021/08/10 00:32:47;;;;;;;4.97;4.00;;;14.80;99.90;;;;;;4974220;28;20158;-69
2021/08/10 00:35:14;;;;;;;8.18;3.85;;;14.90;99.90;;;;;;4974681;28;20361;-72
2021/08/10 00:37:40;;;;;;;7.82;3.92;;;14.80;99.90;;;;;;4974874;28;20037;-69
2021/08/10 00:40:06;;;;;;;6.30;4.15;;;14.80;99.90;;;;;;4974211;28;20472;-70
2021/08/10 00:42:32;;;;;;;11.48;3.70;;;14.80;99.90;;;;;;4974569;28;20086;-70
2021/08/10 00:44:57;;;;;;;5.88;4.38;;;14.80;99.90;;;;;;4974627;28;20079;-69
2021/08/10 00:47:23;;;;;;;5.20;4.50;;;14.80;99.90;;;;;;4973756;28;20032;-70
2021/08/10 00:49:48;;;;;;;7.45;4.00;;;14.80;99.90;;;;;;4974759;28;20037;-73
2021/08/10 00:52:14;;;;;;;10.65;4.40;;;14.80;99.90;;;;;;4974395;28;20023;-69
2021/08/10 00:54:40;;;;;;;6.63;4.32;;;14.80;99.90;;;;;;4973983;28;20085;-70
2021/08/10 00:57:05;;;;;;;7.18;4.50;;;14.80;99.90;;;;;;4974579;28;20406;-72
2021/08/10 00:59:31;;;;;;;4.97;3.95;;;14.80;99.90;;;;;;4974265;28;20459;-70
2021/08/10 01:01:57;;;;;;;6.47;3.90;;;14.80;99.90;;;;;;4973878;28;20034;-74
2021/08/10 01:04:22;;;;;;;5.15;4.35;;;14.80;99.90;;;;;;4973900;28;20082;-70
2021/08/10 01:07:04;;;;;;;6.00;4.40;;;14.80;99.90;;;;;;4957076;28;20030;-70
2021/08/10 01:09:48;;;;;;;;;;;14.80;99.90;;;;;;4973876;28;20050;-70
2021/08/10 01:12:24;;;;;;;7.43;4.30;;;14.80;99.90;;;;;;4974188;28;19989;-70
2021/08/10 01:15:14;;;;;;;4.78;4.10;;;14.80;99.90;;;;;;4973549;28;20035;-72
2021/08/10 01:17:50;;;;;;;11.48;4.05;;;14.70;99.90;;;;;;4974283;28;20041;-70
2021/08/10 01:20:39;;;;;;;5.88;4.70;;;14.80;99.90;;;;;;4956039;28;20598;-69
2021/08/10 01:23:10;;;;;;;8.40;4.40;;;14.80;99.90;;;;;;4973484;28;20030;-69
2021/08/10 01:25:49;;;;;;;;;;;14.80;99.90;;;;;;4957323;28;20015;-69
2021/08/10 01:28:31;;;;;;;8.30;4.55;;;14.70;99.90;;;;;;4973985;28;19910;-69
2021/08/10 01:31:06;;;;;;;8.57;4.53;;;14.80;99.90;;;;;;4974210;28;20065;-70
2021/08/10 01:33:37;;;;;;;7.03;3.90;;;14.80;99.90;;;;;;4973737;28;20034;-69
2021/08/10 01:36:04;;;;;;;7.97;4.70;;;14.70;99.90;;;;;;4973423;28;20039;-69
2021/08/10 01:38:31;;;;;;;13.38;4.80;;;14.80;99.90;;;;;;4956405;28;20019;-69
2021/08/10 01:40:59;;;;;;;6.47;4.28;;;14.70;99.90;;;;;;4973786;28;20019;-69
2021/08/10 01:43:27;;;;;;;9.70;5.03;;;14.80;99.90;;;;;;4973026;28;20065;-69
2021/08/10 01:45:54;;;;;;;11.15;4.88;;;14.80;99.90;;;;;;4955238;28;20404;-69
2021/08/10 01:48:20;;;;;;;8.30;4.93;;;14.80;99.90;;;;;;4954146;29;20118;-69
2021/08/10 01:50:46;;;;;;;6.80;4.32;;;14.80;99.90;;;;;;4953693;29;20071;-69
2021/08/10 01:53:14;;;;;;;10.85;4.80;;;14.90;99.90;;;;;;4954216;29;20481;-69
2021/08/10 01:55:41;;;;;;;10.68;5.22;;;14.80;99.90;;;;;;4954651;29;20027;-69
2021/08/10 01:58:06;;;;;;;9.00;4.85;;;14.80;99.90;;;;;;4954111;29;20027;-68
2021/08/10 02:00:35;;;;;;;6.85;4.97;;;14.90;99.90;;;;;;4954024;29;20498;-69
2021/08/10 02:03:06;;;;;;;11.73;5.20;;;14.90;99.90;;;;;;4954136;29;20043;-70
2021/08/10 02:05:32;;;;;;;8.80;5.03;;;14.90;99.90;;;;;;4953290;29;20039;-71
2021/08/10 02:07:58;;;;;;;8.82;4.72;;;15.00;99.90;;;;;;4956671;28;20029;-70
2021/08/10 02:10:24;;;;;;;6.68;4.32;;;15.00;99.90;;;;;;4972573;28;20396;-70
2021/08/10 02:12:50;;;;;;;10.60;4.82;;;15.10;99.90;;;;;;4971588;28;20472;-69
2021/08/10 02:15:16;;;;;;;7.15;4.38;;;15.10;99.90;;;;;;4956271;28;20133;-69
2021/08/10 02:17:42;;;;;;;10.57;4.00;;;15.20;99.90;;;;;;4973702;28;20479;-70
2021/08/10 02:20:11;;;;;;;5.22;4.35;;;15.20;99.90;;;;;;4973248;28;20166;-71
2021/08/10 02:22:37;;;;;;;9.73;5.70;;;15.10;99.90;;;;;;4973588;28;20106;-71
2021/08/10 02:25:08;;;;;;;7.68;5.20;;;15.20;99.90;;;;;;4972940;28;20487;-70
2021/08/10 02:27:47;;;;;;;11.57;5.75;;;15.20;99.90;;;;;;4973484;28;20027;-76
2021/08/10 02:30:16;;;;;;;6.90;4.72;;;15.10;99.90;;;;;;4973103;28;20392;-71
2021/08/10 02:32:44;;;;;;;7.57;5.43;;;15.10;99.90;;;;;;4954380;28;20023;-77
2021/08/10 02:35:13;;;;;;;8.27;5.63;;;15.10;99.90;;;;;;4956159;29;20101;-70
2021/08/10 02:37:42;;;;;;;10.00;5.80;;;15.10;99.90;;;;;;4957470;29;20074;-77
2021/08/10 02:40:10;;;;;;;7.10;4.53;;;15.10;99.90;;;;;;4956734;29;20047;-70
2021/08/10 02:42:37;;;;;;;12.68;5.20;;;15.00;99.90;;;;;;4957732;29;20388;-70
2021/08/10 02:45:05;;;;;;;7.95;4.80;;;15.00;99.90;;;;;;4957490;29;20102;-72
2021/08/10 02:47:31;;;;;;;6.25;4.28;;;14.90;99.90;;;;;;4956099;29;20829;-69
2021/08/10 02:49:56;;;;;;;10.25;6.25;;;14.90;99.90;;;;;;4957495;29;20027;-72
2021/08/10 02:52:22;;;;;;;13.27;5.25;;;15.00;99.90;;;;;;4957330;29;20031;-69
2021/08/10 02:54:48;;;;;;;6.32;4.72;;;15.00;99.90;;;;;;4956613;29;20092;-70
2021/08/10 02:57:32;;;;;;;8.20;4.82;;;14.90;99.90;;;;;;4939658;29;20385;-70
2021/08/10 03:00:03;;;;;;;6.32;4.43;;;14.90;99.90;;;;;;4957042;29;20027;-71
2021/08/10 03:02:35;;;;;;;7.40;4.50;;;14.90;99.90;;;;;;4957153;29;20026;-71
2021/08/10 03:05:11;;;;;;;11.82;4.85;;;14.80;99.90;;;;;;4940203;29;20436;-74
2021/08/10 03:07:40;;;;;;;6.80;4.75;;;14.80;99.90;;;;;;4938966;29;20027;-70
2021/08/10 03:10:07;;;;;;;8.25;4.65;;;14.80;99.90;;;;;;4939777;29;20058;-70
2021/08/10 03:12:38;;;;;;;7.18;4.32;;;14.80;99.90;;;;;;4956887;29;20030;-70
2021/08/10 03:15:04;;;;;;;4.88;4.07;;;14.70;99.90;;;;;;4956545;29;20035;-69
2021/08/10 03:17:37;;;;;;;5.53;4.35;;;14.70;99.90;;;;;;4956969;29;20065;-70
2021/08/10 03:20:05;;;;;;;14.63;4.93;;;14.70;99.90;;;;;;4957178;29;20031;-70
2021/08/10 03:22:33;;;;;;;14.40;5.15;;;14.70;99.90;;;;;;4956162;29;20080;-70
2021/08/10 03:25:01;;;;;;;6.35;4.50;;;14.70;99.90;;;;;;4957316;29;20050;-69
2021/08/10 03:27:28;;;;;;;6.15;4.22;;;14.70;99.90;;;;;;4939551;29;20016;-75
2021/08/10 03:29:55;;;;;;;8.80;4.78;;;14.70;99.90;;;;;;4956341;29;20023;-72
2021/08/10 03:32:21;;;;;;;6.82;3.95;;;14.70;99.90;;;;;;4956516;29;20015;-70
2021/08/10 03:34:47;;;;;;;9.25;4.57;;;14.70;99.90;;;;;;4956913;29;20069;-76
2021/08/10 03:37:15;;;;;;;11.43;4.72;;;14.60;99.90;;;;;;4955730;29;20019;-69
2021/08/10 03:39:41;;;;;;;14.43;5.22;;;14.60;99.90;;;;;;4956595;29;20570;-69
2021/08/10 03:42:08;;;;;;;6.97;4.70;;;14.60;99.90;;;;;;4938978;29;20109;-69
2021/08/10 03:44:35;;;;;;;5.45;4.30;;;14.60;99.90;;;;;;4956315;29;20023;-69
2021/08/10 03:47:02;;;;;;;8.50;5.00;;;14.50;99.90;;;;;;4956745;29;20024;-71
2021/08/10 03:49:30;;;;;;;5.88;4.43;;;14.50;99.90;;;;;;4955858;29;20066;-71
2021/08/10 03:51:56;;;;;;;10.05;4.45;;;14.50;99.90;;;;;;4956626;29;20110;-70
2021/08/10 03:54:21;;;;;;;6.65;4.80;;;14.60;99.90;;;;;;4956188;29;20118;-73
2021/08/10 03:56:50;;;;;;;5.07;4.47;;;14.50;99.90;;;;;;4955827;29;20102;-69
2021/08/10 03:59:19;;;;;;;6.28;4.35;;;14.50;99.90;;;;;;4955791;29;20023;-69
2021/08/10 04:01:46;;;;;;;6.05;4.50;;;14.50;99.90;;;;;;4956341;29;20067;-69
2021/08/10 04:04:12;;;;;;;10.05;4.72;;;14.50;99.90;;;;;;4955190;29;20055;-69
2021/08/10 04:06:38;;;;;;;7.82;4.90;;;14.50;99.90;;;;;;4939069;29;20445;-69
2021/08/10 04:09:06;;;;;;;9.82;4.57;;;14.50;99.90;;;;;;4955905;29;20020;-70
2021/08/10 04:11:32;;;;;;;7.47;4.70;;;14.40;99.90;;;;;;4955069;29;20492;-70
2021/08/10 04:13:57;;;;;;;5.60;4.25;;;14.40;99.90;;;;;;4956203;29;20067;-70
2021/08/10 04:16:24;;;;;;;8.27;4.10;;;14.40;99.90;;;;;;4955598;29;20058;-69
2021/08/10 04:18:52;;;;;;;7.00;4.95;;;14.30;99.90;;;;;;4955369;29;20027;-73
2021/08/10 04:21:25;;;;;;;8.15;5.13;;;14.30;99.90;;;;;;4955433;29;20358;-77
2021/08/10 04:23:51;;;;;;;7.78;4.60;;;14.30;99.90;;;;;;4956299;29;20031;-73
2021/08/10 04:26:16;;;;;;;10.70;4.50;;;14.30;99.90;;;;;;4955034;29;20395;-72
2021/08/10 04:28:42;;;;;;;12.65;4.88;;;14.30;99.90;;;;;;4938735;29;20031;-70
2021/08/10 04:31:09;;;;;;;8.98;4.60;;;14.20;99.90;;;;;;4955653;29;20023;-71
2021/08/10 04:33:34;;;;;;;6.10;4.50;;;14.20;99.90;;;;;;4937616;29;20059;-72
2021/08/10 04:36:00;;;;;;;6.70;4.47;;;14.20;99.90;;;;;;4938401;29;20019;-70
2021/08/10 04:38:25;;;;;;;9.77;4.18;;;14.20;99.90;;;;;;4954666;29;20493;-71
2021/08/10 04:40:52;;;;;;;4.65;4.13;;;14.20;99.90;;;;;;4955510;29;20499;-73
2021/08/10 04:43:18;;;;;;;6.03;4.47;;;14.20;99.90;;;;;;4955204;29;20031;-73
2021/08/10 04:45:43;;;;;;;6.20;3.70;;;14.20;99.90;;;;;;4937590;29;20026;-70
2021/08/10 04:48:09;;;;;;;6.93;4.28;;;14.20;99.90;;;;;;4955318;29;20121;-71
2021/08/10 04:50:35;;;;;;;7.00;4.40;;;14.30;99.90;;;;;;4955029;29;20047;-69
2021/08/10 04:53:00;;;;;;;10.70;4.40;;;14.30;99.90;;;;;;4936952;29;20071;-72
2021/08/10 04:55:26;;;;;;;7.10;4.45;;;14.30;99.90;;;;;;4954711;29;20550;-70
2021/08/10 04:57:52;;;;;;;14.18;5.07;;;14.30;99.90;;;;;;4955340;29;20384;-73
2021/08/10 05:00:18;;;;;;;5.95;3.97;;;14.30;99.90;;;;;;4954120;29;20033;-76
2021/08/10 05:02:43;;;;;;;8.73;4.50;;;14.30;99.90;;;;;;4938053;29;20486;-69
2021/08/10 05:05:10;;;;;;;9.40;4.55;;;14.30;99.90;;;;;;4938039;29;20035;-74
2021/08/10 05:07:35;;;;;;;7.03;4.97;;;14.30;99.90;;;;;;4954116;29;20029;-72
2021/08/10 05:10:02;;;;;;;10.40;4.28;;;14.30;99.90;;;;;;4955196;29;20035;-82
2021/08/10 05:12:28;;;;;;;4.80;4.00;;;14.30;99.90;;;;;;4954885;29;20028;-74
2021/08/10 05:14:53;;;;;;;9.45;5.13;;;14.30;99.90;;;;;;4954371;29;20499;-76
2021/08/10 05:17:19;;;;;;;12.20;4.90;;;14.40;99.90;;;;;;4954695;29;20019;-76
2021/08/10 05:19:44;;;;;;;6.30;4.45;;;14.40;99.90;;;;;;4954829;29;20071;-72
2021/08/10 05:22:10;;;;;;;8.18;4.18;;;14.40;99.90;;;;;;4937119;29;20023;-70
2021/08/10 05:24:35;;;;;;;8.95;5.10;;;14.40;99.90;;;;;;4954581;29;20023;-69
2021/08/10 05:27:01;;;;;;;4.97;3.97;;;14.40;99.90;;;;;;4954706;29;20019;-73
2021/08/10 05:29:26;;;;;;;11.70;4.80;;;14.40;99.90;;;;;;4953929;29;20380;-69
2021/08/10 05:31:52;;;;;;;8.18;4.07;;;14.40;99.90;;;;;;4955172;29;20081;-70
2021/08/10 05:34:17;;;;;;;6.78;4.47;;;14.40;99.90;;;;;;4954410;29;20035;-69
2021/08/10 05:36:43;;;;;;;7.75;4.47;;;14.40;99.90;;;;;;4936833;29;20031;-69
2021/08/10 05:39:08;;;;;;;7.05;4.60;;;14.40;99.90;;;;;;4954473;29;20086;-69
2021/08/10 05:41:34;;;;;;;8.43;4.05;;;14.50;99.90;;;;;;4954184;29;20035;-69
2021/08/10 05:44:00;;;;;;;8.38;5.05;;;14.50;99.90;;;;;;4936849;29;20043;-70
2021/08/10 05:46:25;;;;;;;4.70;4.15;;;14.50;99.90;;;;;;4954806;29;20495;-69
2021/08/10 05:48:51;;;;;;;19.65;4.57;;;14.50;99.90;;;;;;4954201;29;20023;-69
2021/08/10 05:51:16;;;;;;;6.80;4.53;;;14.50;99.90;;;;;;4954131;29;20022;-72
2021/08/10 05:53:42;;;;;;;9.85;4.55;;;14.60;99.90;;;;;;4953679;29;20484;-69
2021/08/10 05:56:07;;;;;;;10.27;4.65;;;14.60;99.90;;;;;;4953400;29;20031;-68
2021/08/10 05:58:33;;;;;;;7.22;3.80;;;14.60;99.90;;;;;;4961358;28;20023;-70
2021/08/10 06:00:59;;;;;;;8.45;4.90;;;14.60;99.90;;;;;;4973608;28;20073;-68
2021/08/10 06:03:25;;;;;;;10.93;4.65;;;14.70;99.90;;;;;;4959086;28;20047;-69
2021/08/10 06:05:50;;;;;;;8.07;4.70;;;14.90;99.90;;;;;;4956485;28;20409;-69
2021/08/10 06:08:16;;;;;;;6.07;4.30;;;14.90;99.90;;;;;;4957046;29;20023;-68
2021/08/10 06:10:41;;;;;;;9.55;4.60;;;15.00;99.90;;;;;;4971940;28;20046;-70
2021/08/10 06:13:07;;;;;;;6.95;4.45;;;15.00;99.90;;;;;;4975904;28;20019;-69
2021/08/10 06:15:33;;;;;;;9.02;5.00;;;15.10;99.90;;;;;;4940645;29;20491;-69
2021/08/10 06:17:58;;;;;;;9.00;5.03;;;15.10;99.90;;;;;;4940417;29;20396;-72
2021/08/10 06:20:24;;;;;;;8.48;4.30;;;15.10;99.90;;;;;;4957807;29;20034;-68
2021/08/10 06:22:50;;;;;;;10.48;5.10;;;15.20;99.90;;;;;;4956949;29;20042;-74
2021/08/10 06:25:15;;;;;;;8.20;4.82;;;15.20;99.90;;;;;;4957072;29;20031;-70
2021/08/10 06:27:41;;;;;;;10.48;5.15;;;15.40;99.90;;;;;;4940405;29;20061;-71
2021/08/10 06:30:08;;;;;;;13.70;5.53;;;15.60;99.90;;;;;;4958124;29;20424;-75
2021/08/10 06:32:34;;;;;;;9.73;5.40;;;15.70;99.90;;;;;;4957545;29;20015;-69
2021/08/10 06:35:00;;;;;;;8.13;5.35;;;16.00;99.90;;;;;;4937755;29;20036;-78
2021/08/10 06:37:25;;;;;;;5.70;5.07;;;16.30;99.90;;;;;;4944909;29;20078;-70
2021/08/10 06:39:51;;;;;;;8.00;4.60;;;16.70;99.90;;;;;;4938768;29;20126;-72
2021/08/10 06:42:21;;;;;;;8.05;4.85;;;16.90;99.90;;;;;;4940594;29;20027;-88
2021/08/10 06:44:48;;;;;;;7.60;5.13;;;17.10;99.90;;;;;;4957890;29;20049;-85
2021/08/10 06:47:15;;;;;;;10.13;4.70;;;17.30;99.90;;;;;;4939822;29;20063;-71
2021/08/10 06:49:43;;;;;;;7.40;4.75;;;17.30;99.90;;;;;;4940244;29;20034;-83
2021/08/10 06:52:09;;;;;;;6.60;4.95;;;17.40;99.90;;;;;;4938787;29;20020;-77
2021/08/10 06:54:46;;;;;;;7.95;4.63;;;17.50;99.90;;;;;;4956389;29;20042;-86
2021/08/10 06:57:12;;;;;;;8.18;5.10;;;17.60;99.90;;;;;;4924972;29;20027;-77
2021/08/10 06:59:38;;;;;;;7.20;4.65;;;17.70;99.90;;;;;;4939568;29;20425;-76
2021/08/10 07:02:04;;;;;;;9.07;5.47;;;17.80;99.90;;;;;;4957479;29;20373;-78
2021/08/10 07:04:30;;;;;;;9.13;5.28;;;17.80;99.90;;;;;;4956975;29;20523;-82
2021/08/10 07:06:56;;;;;;;9.60;4.90;;;17.90;99.90;;;;;;4956352;29;20031;-75
2021/08/10 07:09:24;;;;;;;13.10;5.72;;;18.00;99.90;;;;;;4955525;29;20141;-70
2021/08/10 07:11:50;;;;;;;10.20;5.53;;;18.00;99.90;;;;;;4957114;29;20115;-73
2021/08/10 07:14:16;;;;;;;10.57;5.05;;;18.00;99.90;;;;;;4955297;29;20044;-75
2021/08/10 07:16:42;;;;;;;12.10;6.13;;;18.10;99.90;;;;;;4939102;29;20480;-85
2021/08/10 07:19:08;;;;;;;8.43;5.60;;;18.30;99.90;;;;;;4956110;29;20461;-80
2021/08/10 07:21:34;;;;;;;9.02;5.88;;;18.40;99.90;;;;;;4955967;29;20058;-77
2021/08/10 07:24:00;;;;;;;10.43;5.63;;;18.60;99.90;;;;;;4956541;29;20035;-75
2021/08/10 07:26:27;;;;;;;12.50;6.18;;;18.90;99.90;;;;;;4939396;29;20041;-75
2021/08/10 07:28:53;;;;;;;10.32;5.80;;;19.10;99.90;;;;;;4956035;29;20042;-74
2021/08/10 07:31:19;;;;;;;11.52;6.65;;;19.20;99.90;;;;;;4939184;29;20023;-78
2021/08/10 07:33:44;;;;;;;12.68;6.07;;;19.40;99.90;;;;;;4938961;29;20496;-74
2021/08/10 07:36:10;;;;;;;12.18;5.97;;;19.40;99.90;;;;;;4955805;29;20039;-74
2021/08/10 07:38:35;;;;;;;10.70;5.63;;;19.30;99.90;;;;;;4954972;29;20032;-77
2021/08/10 07:41:01;;;;;;;8.70;5.80;;;19.10;99.90;;;;;;4956756;29;20436;-76
2021/08/10 07:43:26;;;;;;;8.65;5.38;;;18.80;99.90;;;;;;4955586;29;20059;-74
2021/08/10 07:45:53;;;;;;;8.80;5.50;;;18.60;99.90;;;;;;4938858;29;20130;-72
2021/08/10 07:48:19;;;;;;;7.80;5.25;;;18.60;99.90;;;;;;4956046;29;20051;-72
2021/08/10 07:50:45;;;;;;;9.88;5.80;;;18.80;99.90;;;;;;4938478;29;20051;-73
2021/08/10 07:53:11;;;;;;;7.50;4.72;;;18.90;99.90;;;;;;4956160;29;20388;-72
2021/08/10 07:55:37;;;;;;;11.27;5.43;;;19.00;99.90;;;;;;4955711;29;20051;-72
2021/08/10 07:58:03;;;;;;;10.38;5.47;;;19.20;99.90;;;;;;4939377;29;20035;-72
2021/08/10 08:00:29;;;;;;;8.77;5.07;;;19.30;99.90;;;;;;4955998;29;20472;-72
2021/08/10 08:02:54;;;;;;;10.57;5.30;;;19.40;99.90;;;;;;4955686;29;20106;-72
2021/08/10 08:05:20;;;;;;;8.20;4.97;;;19.20;99.90;;;;;;4956092;29;20031;-72
2021/08/10 08:07:45;;;;;;;7.95;5.35;;;19.10;99.90;;;;;;4938996;29;20031;-73
2021/08/10 08:10:12;;;;;;;6.07;4.78;;;19.00;99.90;;;;;;4938126;29;20031;-72
2021/08/10 08:12:38;;;;;;;11.02;5.53;;;18.90;99.90;;;;;;4938936;29;20027;-72
2021/08/10 08:15:05;;;;;;;8.80;5.55;;;18.90;99.90;;;;;;4956063;29;20036;-72
2021/08/10 08:17:31;;;;;;;9.05;5.20;;;19.00;99.90;;;;;;4954956;29;20042;-77
2021/08/10 08:19:56;;;;;;;7.90;5.13;;;19.10;99.90;;;;;;4955844;29;20027;-72
2021/08/10 08:22:22;;;;;;;8.52;5.57;;;19.30;99.90;;;;;;4938359;29;20038;-72
2021/08/10 08:24:47;;;;;;;10.05;5.18;;;19.50;99.90;;;;;;4938013;29;20051;-73
2021/08/10 08:27:13;;;;;;;6.93;5.03;;;19.60;99.90;;;;;;4955411;29;20023;-72
2021/08/10 08:29:38;;;;;;;7.28;5.18;;;19.70;99.90;;;;;;4938430;29;20023;-73
2021/08/10 08:32:06;;;;;;;8.43;5.25;;;19.70;99.90;;;;;;4955241;29;20031;-73
2021/08/10 08:34:32;;;;;;;6.70;4.93;;;19.70;99.90;;;;;;4955302;29;20046;-75
2021/08/10 08:36:58;;;;;;;8.05;5.00;;;19.60;99.90;;;;;;4955804;29;20384;-72
2021/08/10 08:39:23;;;;;;;5.75;4.80;;;19.50;99.90;;;;;;4954511;29;20034;-74
2021/08/10 08:41:49;;;;;;;8.57;5.20;;;19.50;99.90;;;;;;4955802;29;20020;-72
2021/08/10 08:44:20;;;;;;;7.20;4.13;;;19.40;99.90;;;;;;4955160;29;20027;-73
2021/08/10 08:46:47;;;;;;;7.97;4.57;;;19.50;99.90;;;;;;4937634;29;20027;-72
2021/08/10 08:49:15;;;;;;;7.13;4.55;;;19.60;99.90;;;;;;4955167;29;20055;-74
2021/08/10 08:51:44;;;;;;;4.97;3.50;;;19.80;99.90;;;;;;4937445;29;20039;-74
2021/08/10 08:54:10;;;;;;;6.20;3.60;;;19.90;99.90;;;;;;4955448;29;20035;-72
2021/08/10 08:56:36;;;;;;;7.70;4.05;;;20.10;99.90;;;;;;4955241;29;20078;-81
2021/08/10 08:59:03;;;;;;;5.90;3.75;;;20.30;99.90;;;;;;4954671;29;20392;-72
2021/08/10 09:01:29;;;;;;;5.63;3.83;;;20.50;99.90;;;;;;4954913;29;20023;-72
2021/08/10 09:03:54;;;;;;;5.13;3.38;;;20.70;99.90;;;;;;4938063;29;20058;-74
2021/08/10 09:06:21;;;;;;;6.28;3.40;;;20.90;99.90;;;;;;4954284;29;20028;-73
2021/08/10 09:08:51;;;;;;;7.10;3.55;;;21.20;99.90;;;;;;4937993;29;20030;-73
2021/08/10 09:11:20;;;;;;;5.30;3.75;;;21.20;99.90;;;;;;4954655;29;20502;-72
2021/08/10 09:14:00;;;;;;;6.18;3.60;;;21.20;99.90;;;;;;4936970;29;20035;-72
2021/08/10 09:16:26;;;;;;;8.07;4.32;;;20.90;99.90;;;;;;4954739;29;20098;-74
2021/08/10 09:18:52;;;;;;;5.45;3.45;;;20.70;99.90;;;;;;4955140;29;20155;-72
2021/08/10 09:21:21;;;;;;;5.60;3.63;;;20.80;99.90;;;;;;4953978;29;20027;-73
2021/08/10 09:23:48;;;;;;;6.45;3.33;;;20.90;99.90;;;;;;4937682;29;20499;-72
2021/08/10 09:26:37;;;;;;;4.80;2.97;;;21.10;99.90;;;;;;4954547;29;20023;-72
2021/08/10 09:29:03;;;;;;;9.68;4.10;;;21.20;99.90;;;;;;4954316;29;20499;-74
2021/08/10 09:31:33;;;;;;;4.78;3.17;;;21.30;99.90;;;;;;4954637;29;20027;-72
2021/08/10 09:34:09;;;;;;;5.63;3.22;;;21.20;99.90;;;;;;4954345;29;20042;-74
2021/08/10 09:36:35;;;;;;;7.25;3.58;;;21.10;99.90;;;;;;4954486;29;20377;-71
2021/08/10 09:39:02;;;;;;;5.03;3.10;;;21.20;99.90;;;;;;4937890;28;20769;-76
2021/08/10 09:41:28;;;;;;;5.18;3.40;;;21.20;99.90;;;;;;4959908;28;20024;-72
2021/08/10 09:44:18;;;;;;;4.72;3.45;;;21.10;99.90;;;;;;4961264;29;20503;-71
2021/08/10 09:46:49;;;;;;;4.72;3.47;;;20.90;99.90;;;;;;4961168;29;20428;-71
2021/08/10 09:49:17;;;;;;;3.80;3.25;;;20.90;99.90;;;;;;4959896;28;20083;-72
2021/08/10 09:51:46;;;;;;;5.30;3.47;;;20.90;99.90;;;;;;4944372;29;20054;-76
2021/08/10 09:54:12;;;;;;;4.75;3.25;;;20.90;99.90;;;;;;4960789;29;20074;-73
2021/08/10 09:57:12;;;;;;;8.75;3.63;;;20.90;99.90;;;;;;4960256;28;20388;-72
2021/08/10 09:59:43;;;;;;;6.68;4.20;;;20.70;99.90;;;;;;4943779;29;20020;-73
2021/08/10 10:02:22;;;;;;;7.57;3.72;;;20.50;99.90;;;;;;4960450;28;20391;-73
2021/08/10 10:04:52;;;;;;;8.15;3.75;;;20.40;99.90;;;;;;4943633;29;20582;-72
2021/08/10 10:07:19;;;;;;;6.27;4.00;;;20.50;99.90;;;;;;4960576;28;20105;-74
2021/08/10 10:09:45;;;;;;;6.60;4.07;;;20.60;99.90;;;;;;4960065;29;20275;-72
2021/08/10 10:12:11;;;;;;;8.50;4.60;;;20.80;99.90;;;;;;4960726;28;20118;-73
2021/08/10 10:14:38;;;;;;;5.32;3.90;;;21.00;99.90;;;;;;4943667;29;20079;-75
2021/08/10 10:17:05;;;;;;;5.40;4.28;;;21.20;99.90;;;;;;4960327;29;20446;-76
2021/08/10 10:19:36;;;;;;;7.40;4.28;;;21.40;99.90;;;;;;4943254;29;20043;-77
2021/08/10 10:22:14;;;;;;;5.47;3.65;;;21.30;99.90;;;;;;4960872;29;20015;-80
2021/08/10 10:24:46;;;;;;;6.75;3.90;;;21.10;99.90;;;;;;4960311;29;20063;-75
2021/08/10 10:27:12;;;;;;;5.13;3.10;;;21.00;99.90;;;;;;4960538;29;20020;-73
2021/08/10 10:29:40;;;;;;;4.65;3.00;;;20.90;99.90;;;;;;4960839;28;20380;-71
2021/08/10 10:32:06;;;;;;;5.05;3.08;;;20.80;99.90;;;;;;4960078;29;20091;-73
2021/08/10 10:34:35;;;;;;;8.18;3.33;;;20.70;99.90;;;;;;4960395;29;20463;-72
2021/08/10 10:37:02;;;;;;;4.55;3.20;;;20.50;99.90;;;;;;4960618;28;20027;-72
2021/08/10 10:39:30;;;;;;;6.50;3.40;;;20.40;99.90;;;;;;4959654;28;20059;-73
2021/08/10 10:41:59;;;;;;;4.95;3.63;;;20.40;99.90;;;;;;4960657;28;20019;-74
2021/08/10 10:44:52;;;;;;;5.22;3.03;;;20.80;99.90;;;;;;4959527;28;20073;-77
2021/08/10 10:47:20;;;;;;;6.75;3.60;;;21.40;99.90;;;;;;4960273;29;20488;-76
2021/08/10 10:49:46;;;;;;;4.85;3.22;;;21.90;99.90;;;;;;4960476;29;20370;-74
2021/08/10 10:52:16;;;;;;;6.32;3.25;;;22.20;99.90;;;;;;4956161;28;20027;-72
2021/08/10 10:54:46;;;;;;;5.07;3.15;;;22.60;99.90;;;;;;4957576;29;20039;-73
2021/08/10 10:57:40;;;;;;;5.25;2.83;;;22.90;99.90;;;;;;4957204;29;20098;-73
2021/08/10 11:00:11;;;;;;;6.03;3.20;;;23.10;99.90;;;;;;4939953;29;20528;-72
2021/08/10 11:02:38;;;;;;;;;;;22.90;99.90;;;;;;4957761;29;20416;-71
2021/08/10 11:05:10;;;;;;;3.97;2.83;;;22.70;99.90;;;;;;4957316;29;20323;-73
2021/08/10 11:07:38;;;;;;;6.20;3.40;;;22.70;99.90;;;;;;4956728;29;20034;-74
2021/08/10 11:10:24;;;;;;;4.82;3.17;;;22.90;99.90;;;;;;4957059;29;20018;-76
2021/08/10 11:12:50;;;;;;;4.95;3.83;;;23.20;99.90;;;;;;4939446;29;20054;-72
2021/08/10 11:15:19;;;;;;;8.20;3.47;;;23.30;99.90;;;;;;4939555;29;20384;-72
2021/08/10 11:18:09;;;;;;;5.93;3.22;;;23.30;99.80;;;;;;4957145;29;20050;-72
2021/08/10 11:20:39;;;;;;;4.50;2.97;;;23.40;99.00;;;;;;4956189;29;20126;-73
2021/08/10 11:23:21;;;;;;;5.13;3.05;;;23.60;97.60;;;;;;4939735;29;20038;-76
2021/08/10 11:25:50;;;;;;;6.60;3.25;;;23.70;97.10;;;;;;4956816;29;20110;-71
2021/08/10 11:28:31;;;;;;;4.45;2.72;;;23.70;96.30;;;;;;4955831;29;20020;-76
2021/08/10 11:31:05;;;;;;;4.50;2.85;;;23.80;96.40;;;;;;4939725;29;20433;-73
2021/08/10 11:33:31;;;;;;;7.18;3.33;;;23.90;97.20;;;;;;4955951;29;20481;-77
2021/08/10 11:36:09;;;;;;;7.68;3.72;;;23.90;96.40;;;;;;4939583;29;20058;-73
2021/08/10 11:38:44;;;;;;;5.90;3.33;;;23.70;96.60;;;;;;4956474;29;20049;-72
2021/08/10 11:41:18;;;;;;;6.57;3.63;;;23.60;97.80;;;;;;4956115;29;20035;-73
2021/08/10 11:43:46;;;;;;;7.18;3.78;;;23.60;97.30;;;;;;4956727;29;20559;-72
2021/08/10 11:46:26;;;;;;;6.53;3.53;;;23.70;96.40;;;;;;4956342;29;20028;-73
2021/08/10 11:48:57;;;;;;;5.82;3.60;;;23.70;96.40;;;;;;4955756;29;20484;-72
2021/08/10 11:51:27;;;;;;;;;;;23.60;96.90;;;;;;4939296;29;20110;-71
2021/08/10 11:53:55;;;;;;;7.18;4.22;;;23.50;96.50;;;;;;4936654;29;19918;-74
2021/08/10 11:56:22;;;;;;;4.47;3.08;;;23.30;96.70;;;;;;4952846;29;20034;-71
2021/08/10 11:58:48;;;;;;;6.70;3.55;;;23.30;97.50;;;;;;4955640;29;20396;-70
2021/08/10 12:01:14;;;;;;;6.70;3.95;;;23.40;97.90;;;;;;4937192;29;20135;-72
2021/08/10 12:03:41;;;;;;;6.85;3.22;;;23.40;97.40;;;;;;4954343;28;20134;-73
2021/08/10 12:06:06;;;;;;;6.82;3.72;;;23.30;97.20;;;;;;4955676;29;20035;-72
2021/08/10 12:08:32;;;;;;;4.68;3.03;;;23.50;97.20;;;;;;4936474;29;20452;-73
2021/08/10 12:10:58;;;;;;;6.82;3.40;;;23.70;96.90;;;;;;4937540;29;20453;-71
2021/08/10 12:13:25;;;;;;;3.50;2.60;;;23.80;96.00;;;;;;4937952;29;20372;-75
2021/08/10 12:15:52;;;;;;;7.28;4.70;;;24.00;96.10;;;;;;4937565;29;20028;-72
2021/08/10 12:18:20;;;;;;;5.18;3.05;;;24.10;95.90;;;;;;4938244;29;20028;-73
2021/08/10 12:20:57;;;;;;;6.10;3.58;;;24.10;95.90;;;;;;4955266;29;20026;-72
2021/08/10 12:23:24;;;;;;;3.88;3.20;;;23.90;95.50;;;;;;4954519;29;20049;-76
2021/08/10 12:25:50;;;;;;;6.45;3.20;;;23.70;96.00;;;;;;4955752;29;20499;-72
2021/08/10 12:28:16;;;;;;;7.88;3.78;;;23.50;96.50;;;;;;4935628;29;20039;-71
2021/08/10 12:30:44;;;;;;;6.22;3.60;;;23.30;95.80;;;;;;4952676;29;20027;-72
2021/08/10 12:33:21;;;;;;;5.00;3.17;;;23.20;96.50;;;;;;4953394;29;20041;-69
2021/08/10 12:36:04;;;;;;;7.47;3.63;;;23.30;96.50;;;;;;4954481;29;20044;-75
2021/08/10 12:38:32;;;;;;;5.90;4.13;;;23.50;96.00;;;;;;4953570;29;20023;-72
2021/08/10 12:40:58;;;;;;;7.10;4.22;;;23.70;95.70;;;;;;4955300;29;20050;-70
2021/08/10 12:43:24;;;;;;;6.07;3.95;;;23.90;95.40;;;;;;4954603;29;20023;-75
2021/08/10 12:45:50;;;;;;;6.57;3.95;;;23.90;95.10;;;;;;4936861;29;20043;-71
2021/08/10 12:48:30;;;;;;;6.85;4.00;;;23.80;95.50;;;;;;4954803;29;20095;-75
2021/08/10 12:51:06;;;;;;;5.30;3.67;;;23.60;95.30;;;;;;4954224;29;20023;-71